sensor_id;sensor_type;location;lat;lon;timestamp;P1;durP1;ratioP1;P2;durP2;ratioP2
7179;SDS011;3631;42.152;24.756;2023-12-22T00:01:33;19.33;;;11.87;;
7179;SDS011;3631;42.152;24.756;2023-12-22T00:04:00;24.50;;;13.47;;
7179;SDS011;3631;42.152;24.756;2023-12-22T00:06:27;27.03;;;13.43;;
7179;SDS011;3631;42.152;24.756;2023-12-22T00:08:56;31.87;;;14.70;;
7179;SDS011;3631;42.152;24.756;2023-12-22T00:11:23;26.70;;;13.97;;
7179;SDS011;3631;42.152;24.756;2023-12-22T00:13:50;26.37;;;13.47;;
7179;SDS011;3631;42.152;24.756;2023-12-22T00:16:16;24.30;;;13.23;;
7179;SDS011;3631;42.152;24.756;2023-12-22T00:18:43;22.80;;;12.60;;
7179;SDS011;3631;42.152;24.756;2023-12-22T00:21:10;23.47;;;13.40;;
7179;SDS011;3631;42.152;24.756;2023-12-22T00:23:37;25.33;;;12.90;;
7179;SDS011;3631;42.152;24.756;2023-12-22T00:26:06;20.33;;;12.13;;
7179;SDS011;3631;42.152;24.756;2023-12-22T00:28:33;24.33;;;12.53;;
7179;SDS011;3631;42.152;24.756;2023-12-22T00:31:00;21.87;;;12.27;;
7179;SDS011;3631;42.152;24.756;2023-12-22T00:33:26;20.27;;;11.07;;
7179;SDS011;3631;42.152;24.756;2023-12-22T00:35:53;19.50;;;11.20;;
7179;SDS011;3631;42.152;24.756;2023-12-22T00:38:20;17.23;;;10.73;;
7179;SDS011;3631;42.152;24.756;2023-12-22T00:40:47;15.17;;;9.83;;
7179;SDS011;3631;42.152;24.756;2023-12-22T00:43:15;16.33;;;10.17;;
7179;SDS011;3631;42.152;24.756;2023-12-22T00:45:42;14.27;;;8.97;;
7179;SDS011;3631;42.152;24.756;2023-12-22T00:48:09;15.33;;;10.13;;
7179;SDS011;3631;42.152;24.756;2023-12-22T00:50:36;17.20;;;9.63;;
7179;SDS011;3631;42.152;24.756;2023-12-22T00:53:03;14.03;;;9.83;;
7179;SDS011;3631;42.152;24.756;2023-12-22T00:55:30;15.47;;;9.40;;
7179;SDS011;3631;42.152;24.756;2023-12-22T00:57:57;13.97;;;9.17;;
7179;SDS011;3631;42.152;24.756;2023-12-22T01:00:25;13.83;;;8.97;;
7179;SDS011;3631;42.152;24.756;2023-12-22T01:02:52;18.03;;;9.87;;
7179;SDS011;3631;42.152;24.756;2023-12-22T01:05:19;15.60;;;9.30;;
7179;SDS011;3631;42.152;24.756;2023-12-22T01:07:46;14.67;;;9.50;;
7179;SDS011;3631;42.152;24.756;2023-12-22T01:10:13;16.63;;;10.17;;
7179;SDS011;3631;42.152;24.756;2023-12-22T01:12:40;12.93;;;9.33;;
7179;SDS011;3631;42.152;24.756;2023-12-22T01:15:07;16.87;;;10.00;;
7179;SDS011;3631;42.152;24.756;2023-12-22T01:17:36;14.33;;;9.30;;
7179;SDS011;3631;42.152;24.756;2023-12-22T01:20:03;18.10;;;9.67;;
7179;SDS011;3631;42.152;24.756;2023-12-22T01:22:30;17.93;;;9.37;;
7179;SDS011;3631;42.152;24.756;2023-12-22T01:24:58;14.17;;;8.97;;
7179;SDS011;3631;42.152;24.756;2023-12-22T01:27:26;12.57;;;8.60;;
7179;SDS011;3631;42.152;24.756;2023-12-22T01:29:53;18.90;;;10.47;;
7179;SDS011;3631;42.152;24.756;2023-12-22T01:32:20;15.03;;;9.03;;
7179;SDS011;3631;42.152;24.756;2023-12-22T01:34:48;12.53;;;9.67;;
7179;SDS011;3631;42.152;24.756;2023-12-22T01:37:15;15.73;;;8.90;;
7179;SDS011;3631;42.152;24.756;2023-12-22T01:39:42;16.93;;;10.00;;
7179;SDS011;3631;42.152;24.756;2023-12-22T01:42:09;12.47;;;9.30;;
7179;SDS011;3631;42.152;24.756;2023-12-22T01:44:36;16.80;;;9.63;;
7179;SDS011;3631;42.152;24.756;2023-12-22T01:47:03;15.70;;;9.80;;
7179;SDS011;3631;42.152;24.756;2023-12-22T01:49:30;15.43;;;9.53;;
7179;SDS011;3631;42.152;24.756;2023-12-22T01:51:59;25.40;;;10.53;;
7179;SDS011;3631;42.152;24.756;2023-12-22T01:54:26;17.07;;;10.90;;
7179;SDS011;3631;42.152;24.756;2023-12-22T01:56:53;19.20;;;11.60;;
7179;SDS011;3631;42.152;24.756;2023-12-22T01:59:21;19.50;;;13.13;;
7179;SDS011;3631;42.152;24.756;2023-12-22T02:01:48;19.07;;;12.00;;
7179;SDS011;3631;42.152;24.756;2023-12-22T02:04:15;19.43;;;11.23;;
7179;SDS011;3631;42.152;24.756;2023-12-22T02:06:42;17.07;;;11.37;;
7179;SDS011;3631;42.152;24.756;2023-12-22T02:09:10;20.53;;;11.87;;
7179;SDS011;3631;42.152;24.756;2023-12-22T02:11:37;20.60;;;10.87;;
7179;SDS011;3631;42.152;24.756;2023-12-22T02:14:05;17.87;;;10.43;;
7179;SDS011;3631;42.152;24.756;2023-12-22T02:16:37;19.13;;;11.73;;
7179;SDS011;3631;42.152;24.756;2023-12-22T02:22:02;18.47;;;11.30;;
7179;SDS011;3631;42.152;24.756;2023-12-22T02:24:32;17.07;;;10.37;;
7179;SDS011;3631;42.152;24.756;2023-12-22T02:27:01;16.03;;;10.43;;
7179;SDS011;3631;42.152;24.756;2023-12-22T02:29:31;16.63;;;9.93;;
7179;SDS011;3631;42.152;24.756;2023-12-22T02:32:00;17.13;;;10.40;;
7179;SDS011;3631;42.152;24.756;2023-12-22T02:34:30;16.03;;;10.77;;
7179;SDS011;3631;42.152;24.756;2023-12-22T02:37:00;16.27;;;10.17;;
7179;SDS011;3631;42.152;24.756;2023-12-22T02:39:29;16.97;;;10.60;;
7179;SDS011;3631;42.152;24.756;2023-12-22T02:41:58;18.47;;;10.70;;
7179;SDS011;3631;42.152;24.756;2023-12-22T02:44:25;19.80;;;10.90;;
7179;SDS011;3631;42.152;24.756;2023-12-22T02:46:53;19.57;;;11.23;;
7179;SDS011;3631;42.152;24.756;2023-12-22T02:49:20;17.27;;;10.23;;
7179;SDS011;3631;42.152;24.756;2023-12-22T02:51:47;18.27;;;11.43;;
7179;SDS011;3631;42.152;24.756;2023-12-22T02:54:14;19.30;;;12.00;;
7179;SDS011;3631;42.152;24.756;2023-12-22T02:56:41;19.87;;;11.33;;
7179;SDS011;3631;42.152;24.756;2023-12-22T02:59:09;19.47;;;11.50;;
7179;SDS011;3631;42.152;24.756;2023-12-22T03:01:36;20.73;;;11.83;;
7179;SDS011;3631;42.152;24.756;2023-12-22T03:04:03;18.20;;;10.80;;
7179;SDS011;3631;42.152;24.756;2023-12-22T03:06:30;19.50;;;10.30;;
7179;SDS011;3631;42.152;24.756;2023-12-22T03:08:57;18.27;;;10.90;;
7179;SDS011;3631;42.152;24.756;2023-12-22T03:11:23;23.10;;;10.50;;
7179;SDS011;3631;42.152;24.756;2023-12-22T03:13:50;19.57;;;11.17;;
7179;SDS011;3631;42.152;24.756;2023-12-22T03:16:19;19.60;;;11.43;;
7179;SDS011;3631;42.152;24.756;2023-12-22T03:18:46;17.50;;;10.63;;
7179;SDS011;3631;42.152;24.756;2023-12-22T03:21:15;23.70;;;10.47;;
7179;SDS011;3631;42.152;24.756;2023-12-22T03:23:43;16.50;;;10.60;;
7179;SDS011;3631;42.152;24.756;2023-12-22T03:26:10;18.87;;;10.97;;
7179;SDS011;3631;42.152;24.756;2023-12-22T03:28:37;18.07;;;10.83;;
7179;SDS011;3631;42.152;24.756;2023-12-22T03:31:04;17.10;;;11.00;;
7179;SDS011;3631;42.152;24.756;2023-12-22T03:33:33;17.17;;;10.53;;
7179;SDS011;3631;42.152;24.756;2023-12-22T03:36:00;19.57;;;10.93;;
7179;SDS011;3631;42.152;24.756;2023-12-22T03:38:27;21.07;;;12.53;;
7179;SDS011;3631;42.152;24.756;2023-12-22T03:40:54;20.30;;;12.13;;
7179;SDS011;3631;42.152;24.756;2023-12-22T03:43:20;19.43;;;11.63;;
7179;SDS011;3631;42.152;24.756;2023-12-22T03:45:47;19.23;;;11.93;;
7179;SDS011;3631;42.152;24.756;2023-12-22T03:48:14;19.93;;;12.17;;
7179;SDS011;3631;42.152;24.756;2023-12-22T03:50:42;22.50;;;13.47;;
7179;SDS011;3631;42.152;24.756;2023-12-22T03:53:09;25.73;;;13.83;;
7179;SDS011;3631;42.152;24.756;2023-12-22T03:55:36;21.33;;;13.83;;
7179;SDS011;3631;42.152;24.756;2023-12-22T03:58:03;24.03;;;12.80;;
7179;SDS011;3631;42.152;24.756;2023-12-22T04:00:32;21.17;;;12.10;;
7179;SDS011;3631;42.152;24.756;2023-12-22T04:02:59;19.97;;;12.33;;
7179;SDS011;3631;42.152;24.756;2023-12-22T04:05:26;22.73;;;12.00;;
7179;SDS011;3631;42.152;24.756;2023-12-22T04:07:55;20.90;;;11.10;;
7179;SDS011;3631;42.152;24.756;2023-12-22T04:10:22;19.17;;;11.90;;
7179;SDS011;3631;42.152;24.756;2023-12-22T04:12:48;18.30;;;11.67;;
7179;SDS011;3631;42.152;24.756;2023-12-22T04:15:15;21.87;;;11.70;;
7179;SDS011;3631;42.152;24.756;2023-12-22T04:17:42;19.97;;;11.83;;
7179;SDS011;3631;42.152;24.756;2023-12-22T04:20:09;21.03;;;13.07;;
7179;SDS011;3631;42.152;24.756;2023-12-22T04:22:37;21.03;;;11.90;;
7179;SDS011;3631;42.152;24.756;2023-12-22T04:25:06;18.53;;;11.83;;
7179;SDS011;3631;42.152;24.756;2023-12-22T04:27:34;21.40;;;12.53;;
7179;SDS011;3631;42.152;24.756;2023-12-22T04:30:01;21.67;;;12.60;;
7179;SDS011;3631;42.152;24.756;2023-12-22T04:32:27;20.73;;;13.37;;
7179;SDS011;3631;42.152;24.756;2023-12-22T04:34:54;22.50;;;14.17;;
7179;SDS011;3631;42.152;24.756;2023-12-22T04:37:21;20.93;;;13.60;;
7179;SDS011;3631;42.152;24.756;2023-12-22T04:39:49;21.33;;;13.47;;
7179;SDS011;3631;42.152;24.756;2023-12-22T04:42:18;27.40;;;13.67;;
7179;SDS011;3631;42.152;24.756;2023-12-22T04:44:45;21.87;;;12.33;;
7179;SDS011;3631;42.152;24.756;2023-12-22T04:47:12;23.97;;;13.63;;
7179;SDS011;3631;42.152;24.756;2023-12-22T04:49:39;18.20;;;11.97;;
7179;SDS011;3631;42.152;24.756;2023-12-22T04:52:06;25.43;;;13.93;;
7179;SDS011;3631;42.152;24.756;2023-12-22T04:54:33;25.80;;;14.83;;
7179;SDS011;3631;42.152;24.756;2023-12-22T04:57:00;22.20;;;14.47;;
7179;SDS011;3631;42.152;24.756;2023-12-22T04:59:28;25.90;;;14.63;;
7179;SDS011;3631;42.152;24.756;2023-12-22T05:01:54;26.07;;;14.53;;
7179;SDS011;3631;42.152;24.756;2023-12-22T05:04:21;22.67;;;14.47;;
7179;SDS011;3631;42.152;24.756;2023-12-22T05:06:48;23.83;;;14.00;;
7179;SDS011;3631;42.152;24.756;2023-12-22T05:09:15;26.13;;;15.03;;
7179;SDS011;3631;42.152;24.756;2023-12-22T05:11:42;23.37;;;13.77;;
7179;SDS011;3631;42.152;24.756;2023-12-22T05:14:09;22.90;;;14.40;;
7179;SDS011;3631;42.152;24.756;2023-12-22T05:16:38;20.83;;;13.30;;
7179;SDS011;3631;42.152;24.756;2023-12-22T05:19:04;19.37;;;12.73;;
7179;SDS011;3631;42.152;24.756;2023-12-22T05:21:31;19.60;;;11.57;;
7179;SDS011;3631;42.152;24.756;2023-12-22T05:23:58;18.87;;;11.17;;
7179;SDS011;3631;42.152;24.756;2023-12-22T05:26:25;16.60;;;10.77;;
7179;SDS011;3631;42.152;24.756;2023-12-22T05:28:55;19.87;;;11.07;;
7179;SDS011;3631;42.152;24.756;2023-12-22T05:31:22;17.10;;;10.83;;
7179;SDS011;3631;42.152;24.756;2023-12-22T05:33:50;19.30;;;11.70;;
7179;SDS011;3631;42.152;24.756;2023-12-22T05:36:17;23.20;;;12.73;;
7179;SDS011;3631;42.152;24.756;2023-12-22T05:38:44;23.37;;;13.43;;
7179;SDS011;3631;42.152;24.756;2023-12-22T05:41:11;28.07;;;15.27;;
7179;SDS011;3631;42.152;24.756;2023-12-22T05:43:38;29.20;;;14.83;;
7179;SDS011;3631;42.152;24.756;2023-12-22T05:46:05;28.40;;;13.73;;
7179;SDS011;3631;42.152;24.756;2023-12-22T05:48:33;28.70;;;15.47;;
7179;SDS011;3631;42.152;24.756;2023-12-22T05:51:02;30.63;;;16.00;;
7179;SDS011;3631;42.152;24.756;2023-12-22T05:53:33;30.90;;;17.23;;
7179;SDS011;3631;42.152;24.756;2023-12-22T05:56:00;33.63;;;17.97;;
7179;SDS011;3631;42.152;24.756;2023-12-22T05:58:27;35.77;;;17.73;;
7179;SDS011;3631;42.152;24.756;2023-12-22T06:00:54;43.50;;;17.60;;
7179;SDS011;3631;42.152;24.756;2023-12-22T06:03:21;39.50;;;20.10;;
7179;SDS011;3631;42.152;24.756;2023-12-22T06:05:48;40.07;;;19.90;;
7179;SDS011;3631;42.152;24.756;2023-12-22T06:08:16;36.07;;;18.60;;
7179;SDS011;3631;42.152;24.756;2023-12-22T06:10:43;34.33;;;16.77;;
7179;SDS011;3631;42.152;24.756;2023-12-22T06:13:10;35.43;;;17.20;;
7179;SDS011;3631;42.152;24.756;2023-12-22T06:15:37;34.63;;;16.87;;
7179;SDS011;3631;42.152;24.756;2023-12-22T06:18:04;31.13;;;17.53;;
7179;SDS011;3631;42.152;24.756;2023-12-22T06:20:31;34.70;;;18.27;;
7179;SDS011;3631;42.152;24.756;2023-12-22T06:22:58;32.50;;;16.90;;
7179;SDS011;3631;42.152;24.756;2023-12-22T06:25:26;31.93;;;15.77;;
7179;SDS011;3631;42.152;24.756;2023-12-22T06:27:53;29.40;;;14.83;;
7179;SDS011;3631;42.152;24.756;2023-12-22T06:30:20;24.00;;;12.83;;
7179;SDS011;3631;42.152;24.756;2023-12-22T06:32:47;18.57;;;12.57;;
7179;SDS011;3631;42.152;24.756;2023-12-22T06:35:14;25.30;;;12.70;;
7179;SDS011;3631;42.152;24.756;2023-12-22T06:37:42;27.57;;;14.60;;
7179;SDS011;3631;42.152;24.756;2023-12-22T06:40:09;26.13;;;14.43;;
7179;SDS011;3631;42.152;24.756;2023-12-22T06:42:38;27.33;;;14.53;;
7179;SDS011;3631;42.152;24.756;2023-12-22T06:45:05;28.20;;;13.17;;
7179;SDS011;3631;42.152;24.756;2023-12-22T06:47:32;26.80;;;14.17;;
7179;SDS011;3631;42.152;24.756;2023-12-22T06:49:59;33.40;;;15.40;;
7179;SDS011;3631;42.152;24.756;2023-12-22T06:52:26;31.40;;;15.00;;
7179;SDS011;3631;42.152;24.756;2023-12-22T06:54:53;33.23;;;16.37;;
7179;SDS011;3631;42.152;24.756;2023-12-22T06:57:20;33.17;;;16.83;;
7179;SDS011;3631;42.152;24.756;2023-12-22T06:59:48;36.17;;;16.73;;
7179;SDS011;3631;42.152;24.756;2023-12-22T07:02:15;36.23;;;16.67;;
7179;SDS011;3631;42.152;24.756;2023-12-22T07:07:46;32.83;;;16.27;;
7179;SDS011;3631;42.152;24.756;2023-12-22T07:10:13;34.63;;;17.17;;
7179;SDS011;3631;42.152;24.756;2023-12-22T07:12:40;32.70;;;17.40;;
7179;SDS011;3631;42.152;24.756;2023-12-22T07:15:08;34.83;;;17.97;;
7179;SDS011;3631;42.152;24.756;2023-12-22T07:17:36;33.50;;;17.43;;
7179;SDS011;3631;42.152;24.756;2023-12-22T07:20:03;28.00;;;16.47;;
7179;SDS011;3631;42.152;24.756;2023-12-22T07:22:31;35.37;;;19.60;;
7179;SDS011;3631;42.152;24.756;2023-12-22T07:24:58;35.67;;;18.33;;
7179;SDS011;3631;42.152;24.756;2023-12-22T07:27:24;33.27;;;18.33;;
7179;SDS011;3631;42.152;24.756;2023-12-22T07:29:52;32.83;;;19.30;;
7179;SDS011;3631;42.152;24.756;2023-12-22T07:32:20;36.47;;;18.83;;
7179;SDS011;3631;42.152;24.756;2023-12-22T07:34:47;36.17;;;19.57;;
7179;SDS011;3631;42.152;24.756;2023-12-22T07:37:14;37.73;;;22.03;;
7179;SDS011;3631;42.152;24.756;2023-12-22T07:39:41;44.50;;;23.47;;
7179;SDS011;3631;42.152;24.756;2023-12-22T07:42:10;49.97;;;23.67;;
7179;SDS011;3631;42.152;24.756;2023-12-22T07:44:37;38.70;;;22.47;;
7179;SDS011;3631;42.152;24.756;2023-12-22T07:47:04;47.70;;;22.60;;
7179;SDS011;3631;42.152;24.756;2023-12-22T07:49:33;39.53;;;21.73;;
7179;SDS011;3631;42.152;24.756;2023-12-22T07:52:00;39.47;;;20.53;;
7179;SDS011;3631;42.152;24.756;2023-12-22T07:54:27;38.27;;;20.37;;
7179;SDS011;3631;42.152;24.756;2023-12-22T07:56:54;34.27;;;19.73;;
7179;SDS011;3631;42.152;24.756;2023-12-22T07:59:21;39.53;;;19.63;;
7179;SDS011;3631;42.152;24.756;2023-12-22T08:01:48;38.87;;;18.77;;
7179;SDS011;3631;42.152;24.756;2023-12-22T08:04:15;30.03;;;17.57;;
7179;SDS011;3631;42.152;24.756;2023-12-22T08:06:43;31.93;;;15.60;;
7179;SDS011;3631;42.152;24.756;2023-12-22T08:09:10;24.57;;;15.20;;
7179;SDS011;3631;42.152;24.756;2023-12-22T08:11:37;27.87;;;15.33;;
7179;SDS011;3631;42.152;24.756;2023-12-22T08:14:04;32.30;;;15.57;;
7179;SDS011;3631;42.152;24.756;2023-12-22T08:16:31;30.20;;;15.57;;
7179;SDS011;3631;42.152;24.756;2023-12-22T08:18:58;28.83;;;15.47;;
7179;SDS011;3631;42.152;24.756;2023-12-22T08:21:25;38.50;;;16.17;;
7179;SDS011;3631;42.152;24.756;2023-12-22T08:23:54;25.13;;;13.67;;
7179;SDS011;3631;42.152;24.756;2023-12-22T08:26:21;29.17;;;14.73;;
7179;SDS011;3631;42.152;24.756;2023-12-22T08:28:48;31.63;;;13.93;;
7179;SDS011;3631;42.152;24.756;2023-12-22T08:31:14;24.77;;;12.07;;
7179;SDS011;3631;42.152;24.756;2023-12-22T08:33:41;22.17;;;12.00;;
7179;SDS011;3631;42.152;24.756;2023-12-22T08:36:09;19.77;;;12.00;;
7179;SDS011;3631;42.152;24.756;2023-12-22T08:38:36;25.93;;;12.00;;
7179;SDS011;3631;42.152;24.756;2023-12-22T08:41:06;23.00;;;12.23;;
7179;SDS011;3631;42.152;24.756;2023-12-22T08:43:36;28.17;;;12.57;;
7179;SDS011;3631;42.152;24.756;2023-12-22T08:46:03;19.10;;;13.07;;
7179;SDS011;3631;42.152;24.756;2023-12-22T08:48:30;29.00;;;14.40;;
7179;SDS011;3631;42.152;24.756;2023-12-22T08:50:57;24.87;;;11.80;;
7179;SDS011;3631;42.152;24.756;2023-12-22T08:53:24;20.57;;;12.00;;
7179;SDS011;3631;42.152;24.756;2023-12-22T08:55:51;24.83;;;11.20;;
7179;SDS011;3631;42.152;24.756;2023-12-22T08:58:19;21.00;;;12.10;;
7179;SDS011;3631;42.152;24.756;2023-12-22T09:00:46;20.23;;;12.33;;
7179;SDS011;3631;42.152;24.756;2023-12-22T09:03:13;19.90;;;14.53;;
7179;SDS011;3631;42.152;24.756;2023-12-22T09:05:40;22.70;;;13.63;;
7179;SDS011;3631;42.152;24.756;2023-12-22T09:08:07;25.53;;;13.20;;
7179;SDS011;3631;42.152;24.756;2023-12-22T09:10:33;29.77;;;13.13;;
7179;SDS011;3631;42.152;24.756;2023-12-22T09:13:00;27.23;;;14.80;;
7179;SDS011;3631;42.152;24.756;2023-12-22T09:15:29;20.63;;;13.37;;
7179;SDS011;3631;42.152;24.756;2023-12-22T09:17:56;26.47;;;13.70;;
7179;SDS011;3631;42.152;24.756;2023-12-22T09:20:23;23.47;;;12.90;;
7179;SDS011;3631;42.152;24.756;2023-12-22T09:22:49;26.20;;;12.33;;
7179;SDS011;3631;42.152;24.756;2023-12-22T09:25:16;25.23;;;12.77;;
7179;SDS011;3631;42.152;24.756;2023-12-22T09:27:45;29.47;;;13.63;;
7179;SDS011;3631;42.152;24.756;2023-12-22T09:30:12;28.80;;;13.90;;
7179;SDS011;3631;42.152;24.756;2023-12-22T09:32:41;20.73;;;12.73;;
7179;SDS011;3631;42.152;24.756;2023-12-22T09:35:09;28.30;;;13.93;;
7179;SDS011;3631;42.152;24.756;2023-12-22T09:37:35;24.30;;;14.27;;
7179;SDS011;3631;42.152;24.756;2023-12-22T09:40:03;24.73;;;13.60;;
7179;SDS011;3631;42.152;24.756;2023-12-22T09:42:32;23.00;;;13.40;;
7179;SDS011;3631;42.152;24.756;2023-12-22T09:44:59;25.30;;;13.87;;
7179;SDS011;3631;42.152;24.756;2023-12-22T09:47:28;30.20;;;13.77;;
7179;SDS011;3631;42.152;24.756;2023-12-22T09:49:58;24.77;;;13.50;;
7179;SDS011;3631;42.152;24.756;2023-12-22T09:52:25;23.40;;;13.93;;
7179;SDS011;3631;42.152;24.756;2023-12-22T09:54:54;27.60;;;14.30;;
7179;SDS011;3631;42.152;24.756;2023-12-22T09:57:24;22.73;;;13.67;;
7179;SDS011;3631;42.152;24.756;2023-12-22T09:59:52;25.03;;;14.63;;
7179;SDS011;3631;42.152;24.756;2023-12-22T10:02:20;24.97;;;14.83;;
7179;SDS011;3631;42.152;24.756;2023-12-22T10:04:49;33.20;;;16.20;;
7179;SDS011;3631;42.152;24.756;2023-12-22T10:07:17;29.87;;;14.63;;
7179;SDS011;3631;42.152;24.756;2023-12-22T10:09:45;26.90;;;14.87;;
7179;SDS011;3631;42.152;24.756;2023-12-22T10:12:14;23.97;;;14.87;;
7179;SDS011;3631;42.152;24.756;2023-12-22T10:14:41;24.67;;;13.47;;
7179;SDS011;3631;42.152;24.756;2023-12-22T10:17:09;22.60;;;13.67;;
7179;SDS011;3631;42.152;24.756;2023-12-22T10:19:36;19.93;;;13.03;;
7179;SDS011;3631;42.152;24.756;2023-12-22T10:22:04;21.30;;;12.27;;
7179;SDS011;3631;42.152;24.756;2023-12-22T10:24:39;24.60;;;12.70;;
7179;SDS011;3631;42.152;24.756;2023-12-22T10:27:08;20.77;;;11.80;;
7179;SDS011;3631;42.152;24.756;2023-12-22T10:29:36;22.73;;;12.87;;
7179;SDS011;3631;42.152;24.756;2023-12-22T10:32:03;19.50;;;12.80;;
7179;SDS011;3631;42.152;24.756;2023-12-22T10:34:31;27.60;;;13.40;;
7179;SDS011;3631;42.152;24.756;2023-12-22T10:36:58;20.63;;;12.40;;
7179;SDS011;3631;42.152;24.756;2023-12-22T10:39:26;20.27;;;12.30;;
7179;SDS011;3631;42.152;24.756;2023-12-22T10:41:56;18.83;;;12.00;;
7179;SDS011;3631;42.152;24.756;2023-12-22T10:44:23;19.07;;;12.03;;
7179;SDS011;3631;42.152;24.756;2023-12-22T10:46:51;17.60;;;11.97;;
7179;SDS011;3631;42.152;24.756;2023-12-22T10:49:20;16.43;;;10.93;;
7179;SDS011;3631;42.152;24.756;2023-12-22T10:51:46;22.80;;;11.33;;
7179;SDS011;3631;42.152;24.756;2023-12-22T10:54:14;20.90;;;12.20;;
7179;SDS011;3631;42.152;24.756;2023-12-22T10:56:41;22.00;;;13.97;;
7179;SDS011;3631;42.152;24.756;2023-12-22T10:59:09;20.60;;;13.07;;
7179;SDS011;3631;42.152;24.756;2023-12-22T11:01:37;21.47;;;12.73;;
7179;SDS011;3631;42.152;24.756;2023-12-22T11:04:05;18.37;;;11.33;;
7179;SDS011;3631;42.152;24.756;2023-12-22T11:06:34;21.73;;;13.77;;
7179;SDS011;3631;42.152;24.756;2023-12-22T11:09:03;18.77;;;12.10;;
7179;SDS011;3631;42.152;24.756;2023-12-22T11:11:34;63.57;;;32.47;;
7179;SDS011;3631;42.152;24.756;2023-12-22T11:14:02;36.73;;;20.60;;
7179;SDS011;3631;42.152;24.756;2023-12-22T11:16:31;19.87;;;11.20;;
7179;SDS011;3631;42.152;24.756;2023-12-22T11:19:00;15.77;;;9.77;;
7179;SDS011;3631;42.152;24.756;2023-12-22T11:21:28;12.80;;;9.30;;
7179;SDS011;3631;42.152;24.756;2023-12-22T11:23:55;14.40;;;9.57;;
7179;SDS011;3631;42.152;24.756;2023-12-22T11:26:24;16.37;;;9.40;;
7179;SDS011;3631;42.152;24.756;2023-12-22T11:28:51;13.37;;;10.07;;
7179;SDS011;3631;42.152;24.756;2023-12-22T11:31:18;16.00;;;9.97;;
7179;SDS011;3631;42.152;24.756;2023-12-22T11:33:48;10.90;;;8.50;;
7179;SDS011;3631;42.152;24.756;2023-12-22T11:36:16;11.80;;;8.50;;
7179;SDS011;3631;42.152;24.756;2023-12-22T11:38:44;10.07;;;8.07;;
7179;SDS011;3631;42.152;24.756;2023-12-22T11:41:14;11.13;;;7.87;;
7179;SDS011;3631;42.152;24.756;2023-12-22T11:43:44;12.77;;;10.63;;
7179;SDS011;3631;42.152;24.756;2023-12-22T11:46:13;9.73;;;8.03;;
7179;SDS011;3631;42.152;24.756;2023-12-22T11:48:47;7.50;;;6.57;;
7179;SDS011;3631;42.152;24.756;2023-12-22T11:51:15;17.07;;;11.37;;
7179;SDS011;3631;42.152;24.756;2023-12-22T11:53:43;45.40;;;24.60;;
7179;SDS011;3631;42.152;24.756;2023-12-22T11:56:10;100.70;;;52.80;;
7179;SDS011;3631;42.152;24.756;2023-12-22T11:58:39;19.60;;;13.83;;
7179;SDS011;3631;42.152;24.756;2023-12-22T12:01:07;13.83;;;9.17;;
7179;SDS011;3631;42.152;24.756;2023-12-22T12:03:40;6.97;;;6.30;;
7179;SDS011;3631;42.152;24.756;2023-12-22T12:06:15;7.40;;;6.67;;
7179;SDS011;3631;42.152;24.756;2023-12-22T12:08:42;12.17;;;7.93;;
7179;SDS011;3631;42.152;24.756;2023-12-22T12:11:09;7.50;;;6.63;;
7179;SDS011;3631;42.152;24.756;2023-12-22T12:13:37;8.27;;;5.87;;
7179;SDS011;3631;42.152;24.756;2023-12-22T12:16:10;6.63;;;5.73;;
7179;SDS011;3631;42.152;24.756;2023-12-22T12:18:38;8.10;;;6.27;;
7179;SDS011;3631;42.152;24.756;2023-12-22T12:21:06;8.93;;;6.23;;
7179;SDS011;3631;42.152;24.756;2023-12-22T12:23:35;6.10;;;5.50;;
7179;SDS011;3631;42.152;24.756;2023-12-22T12:26:02;5.40;;;4.90;;
7179;SDS011;3631;42.152;24.756;2023-12-22T12:28:30;8.03;;;4.80;;
7179;SDS011;3631;42.152;24.756;2023-12-22T12:30:58;5.43;;;4.93;;
7179;SDS011;3631;42.152;24.756;2023-12-22T12:33:26;5.30;;;4.80;;
7179;SDS011;3631;42.152;24.756;2023-12-22T12:35:54;6.00;;;5.40;;
7179;SDS011;3631;42.152;24.756;2023-12-22T12:38:23;7.00;;;5.87;;
7179;SDS011;3631;42.152;24.756;2023-12-22T12:41:04;6.47;;;5.40;;
7179;SDS011;3631;42.152;24.756;2023-12-22T12:43:31;5.10;;;4.70;;
7179;SDS011;3631;42.152;24.756;2023-12-22T12:46:03;4.30;;;3.93;;
7179;SDS011;3631;42.152;24.756;2023-12-22T12:48:30;4.17;;;3.80;;
7179;SDS011;3631;42.152;24.756;2023-12-22T12:51:00;5.10;;;3.70;;
7179;SDS011;3631;42.152;24.756;2023-12-22T12:53:29;3.73;;;3.43;;
7179;SDS011;3631;42.152;24.756;2023-12-22T12:55:57;5.73;;;3.07;;
7179;SDS011;3631;42.152;24.756;2023-12-22T12:58:28;4.20;;;3.47;;
7179;SDS011;3631;42.152;24.756;2023-12-22T13:01:03;3.20;;;2.90;;
7179;SDS011;3631;42.152;24.756;2023-12-22T13:03:31;4.40;;;4.00;;
7179;SDS011;3631;42.152;24.756;2023-12-22T13:06:08;3.97;;;3.57;;
7179;SDS011;3631;42.152;24.756;2023-12-22T13:08:35;4.43;;;4.03;;
7179;SDS011;3631;42.152;24.756;2023-12-22T13:11:05;4.73;;;3.97;;
7179;SDS011;3631;42.152;24.756;2023-12-22T13:13:41;6.33;;;5.00;;
7179;SDS011;3631;42.152;24.756;2023-12-22T13:16:10;4.00;;;3.70;;
7179;SDS011;3631;42.152;24.756;2023-12-22T13:18:37;4.43;;;4.03;;
7179;SDS011;3631;42.152;24.756;2023-12-22T13:21:05;5.80;;;4.40;;
7179;SDS011;3631;42.152;24.756;2023-12-22T13:23:32;5.50;;;5.00;;
7179;SDS011;3631;42.152;24.756;2023-12-22T13:25:59;7.50;;;6.07;;
7179;SDS011;3631;42.152;24.756;2023-12-22T13:28:26;6.63;;;5.43;;
7179;SDS011;3631;42.152;24.756;2023-12-22T13:30:55;7.37;;;5.87;;
7179;SDS011;3631;42.152;24.756;2023-12-22T13:33:22;6.90;;;6.07;;
7179;SDS011;3631;42.152;24.756;2023-12-22T13:35:55;10.03;;;6.50;;
7179;SDS011;3631;42.152;24.756;2023-12-22T13:38:23;6.73;;;4.87;;
7179;SDS011;3631;42.152;24.756;2023-12-22T13:40:50;5.53;;;4.17;;
7179;SDS011;3631;42.152;24.756;2023-12-22T13:43:17;8.07;;;4.60;;
7179;SDS011;3631;42.152;24.756;2023-12-22T13:45:46;4.50;;;4.10;;
7179;SDS011;3631;42.152;24.756;2023-12-22T13:48:19;5.07;;;3.80;;
7179;SDS011;3631;42.152;24.756;2023-12-22T13:50:54;4.70;;;4.30;;
7179;SDS011;3631;42.152;24.756;2023-12-22T13:53:22;4.77;;;4.30;;
7179;SDS011;3631;42.152;24.756;2023-12-22T13:55:53;4.83;;;4.03;;
7179;SDS011;3631;42.152;24.756;2023-12-22T13:58:21;6.87;;;4.03;;
7179;SDS011;3631;42.152;24.756;2023-12-22T14:00:48;5.63;;;4.53;;
7179;SDS011;3631;42.152;24.756;2023-12-22T14:03:14;5.47;;;4.97;;
7179;SDS011;3631;42.152;24.756;2023-12-22T14:05:44;5.20;;;4.10;;
7179;SDS011;3631;42.152;24.756;2023-12-22T14:08:11;4.50;;;4.10;;
7179;SDS011;3631;42.152;24.756;2023-12-22T14:10:37;3.17;;;2.87;;
7179;SDS011;3631;42.152;24.756;2023-12-22T14:13:11;3.57;;;3.20;;
7179;SDS011;3631;42.152;24.756;2023-12-22T14:15:38;3.07;;;2.87;;
7179;SDS011;3631;42.152;24.756;2023-12-22T14:18:05;2.90;;;2.70;;
7179;SDS011;3631;42.152;24.756;2023-12-22T14:20:31;2.77;;;2.53;;
7179;SDS011;3631;42.152;24.756;2023-12-22T14:23:00;4.13;;;2.77;;
7179;SDS011;3631;42.152;24.756;2023-12-22T14:25:27;3.87;;;2.67;;
7179;SDS011;3631;42.152;24.756;2023-12-22T14:27:54;3.23;;;2.93;;
7179;SDS011;3631;42.152;24.756;2023-12-22T14:30:22;3.93;;;3.40;;
7179;SDS011;3631;42.152;24.756;2023-12-22T14:32:49;3.27;;;2.97;;
7179;SDS011;3631;42.152;24.756;2023-12-22T14:35:16;4.23;;;3.63;;
7179;SDS011;3631;42.152;24.756;2023-12-22T14:37:43;4.53;;;4.13;;
7179;SDS011;3631;42.152;24.756;2023-12-22T14:40:12;4.77;;;4.37;;
7179;SDS011;3631;42.152;24.756;2023-12-22T14:42:40;7.73;;;3.97;;
7179;SDS011;3631;42.152;24.756;2023-12-22T14:45:07;6.13;;;4.47;;
7179;SDS011;3631;42.152;24.756;2023-12-22T14:47:34;4.53;;;4.13;;
7179;SDS011;3631;42.152;24.756;2023-12-22T14:50:01;6.20;;;4.47;;